sensor_id;sensor_type;location;lat;lon;timestamp;temperature;humidity
15099;DHT22;33900;53.640;9.942;2024-02-26T00:02:13;7.80;94.30
15099;DHT22;33900;53.640;9.942;2024-02-26T00:04:39;7.70;94.30
15099;DHT22;33900;53.640;9.942;2024-02-26T00:07:05;7.70;94.30
15099;DHT22;33900;53.640;9.942;2024-02-26T00:09:30;7.70;94.30
15099;DHT22;33900;53.640;9.942;2024-02-26T00:11:56;7.70;94.30
15099;DHT22;33900;53.640;9.942;2024-02-26T00:14:23;7.60;94.30
15099;DHT22;33900;53.640;9.942;2024-02-26T00:16:48;7.60;94.30
15099;DHT22;33900;53.640;9.942;2024-02-26T00:19:14;7.50;94.20
15099;DHT22;33900;53.640;9.942;2024-02-26T00:21:40;7.50;94.30
15099;DHT22;33900;53.640;9.942;2024-02-26T00:24:06;7.50;94.30
15099;DHT22;33900;53.640;9.942;2024-02-26T00:26:32;7.40;94.30
15099;DHT22;33900;53.640;9.942;2024-02-26T00:28:58;7.40;94.30
15099;DHT22;33900;53.640;9.942;2024-02-26T00:31:23;7.40;94.30
15099;DHT22;33900;53.640;9.942;2024-02-26T00:33:49;7.30;94.30
15099;DHT22;33900;53.640;9.942;2024-02-26T00:36:15;7.30;94.30
15099;DHT22;33900;53.640;9.942;2024-02-26T00:38:40;7.20;94.30
15099;DHT22;33900;53.640;9.942;2024-02-26T00:41:06;7.20;94.30
15099;DHT22;33900;53.640;9.942;2024-02-26T00:43:31;7.20;94.30
15099;DHT22;33900;53.640;9.942;2024-02-26T00:45:57;7.20;94.30
15099;DHT22;33900;53.640;9.942;2024-02-26T00:48:22;7.10;94.30
15099;DHT22;33900;53.640;9.942;2024-02-26T00:50:51;7.10;94.30
15099;DHT22;33900;53.640;9.942;2024-02-26T00:53:17;7.00;94.30
15099;DHT22;33900;53.640;9.942;2024-02-26T00:55:42;7.00;94.30
15099;DHT22;33900;53.640;9.942;2024-02-26T00:58:08;7.00;94.30
15099;DHT22;33900;53.640;9.942;2024-02-26T01:00:34;6.90;94.30
15099;DHT22;33900;53.640;9.942;2024-02-26T01:03:00;6.90;94.30
15099;DHT22;33900;53.640;9.942;2024-02-26T01:05:25;6.90;94.30
15099;DHT22;33900;53.640;9.942;2024-02-26T01:07:51;6.80;94.30
15099;DHT22;33900;53.640;9.942;2024-02-26T01:10:17;6.80;94.30
15099;DHT22;33900;53.640;9.942;2024-02-26T01:12:42;6.70;94.30
15099;DHT22;33900;53.640;9.942;2024-02-26T01:15:08;6.70;94.30
15099;DHT22;33900;53.640;9.942;2024-02-26T01:17:33;6.70;94.30
15099;DHT22;33900;53.640;9.942;2024-02-26T01:19:59;6.60;94.30
15099;DHT22;33900;53.640;9.942;2024-02-26T01:22:24;6.60;94.30
15099;DHT22;33900;53.640;9.942;2024-02-26T01:24:50;6.60;94.30
15099;DHT22;33900;53.640;9.942;2024-02-26T01:27:16;6.60;94.30
15099;DHT22;33900;53.640;9.942;2024-02-26T01:29:41;6.50;94.30
15099;DHT22;33900;53.640;9.942;2024-02-26T01:32:07;6.50;94.30
15099;DHT22;33900;53.640;9.942;2024-02-26T01:34:33;6.50;94.30
15099;DHT22;33900;53.640;9.942;2024-02-26T01:36:59;6.40;94.30
15099;DHT22;33900;53.640;9.942;2024-02-26T01:39:24;6.40;94.30
15099;DHT22;33900;53.640;9.942;2024-02-26T01:41:50;6.40;94.30
15099;DHT22;33900;53.640;9.942;2024-02-26T01:44:15;6.30;94.30
15099;DHT22;33900;53.640;9.942;2024-02-26T01:46:41;6.30;94.30
15099;DHT22;33900;53.640;9.942;2024-02-26T01:49:08;6.30;94.30
15099;DHT22;33900;53.640;9.942;2024-02-26T01:51:34;6.20;94.30
15099;DHT22;33900;53.640;9.942;2024-02-26T01:54:00;6.20;94.30
15099;DHT22;33900;53.640;9.942;2024-02-26T01:56:27;6.20;94.40
15099;DHT22;33900;53.640;9.942;2024-02-26T01:58:55;6.20;94.40
15099;DHT22;33900;53.640;9.942;2024-02-26T02:01:22;6.10;94.40
15099;DHT22;33900;53.640;9.942;2024-02-26T02:03:50;6.10;94.40
15099;DHT22;33900;53.640;9.942;2024-02-26T02:06:16;6.10;94.40
15099;DHT22;33900;53.640;9.942;2024-02-26T02:08:42;6.10;94.40
15099;DHT22;33900;53.640;9.942;2024-02-26T02:11:07;6.00;94.40
15099;DHT22;33900;53.640;9.942;2024-02-26T02:13:37;6.10;94.40
15099;DHT22;33900;53.640;9.942;2024-02-26T02:16:02;6.00;94.40
15099;DHT22;33900;53.640;9.942;2024-02-26T02:18:28;6.00;94.40
15099;DHT22;33900;53.640;9.942;2024-02-26T02:20:53;6.00;94.40
15099;DHT22;33900;53.640;9.942;2024-02-26T02:23:21;6.00;94.40
15099;DHT22;33900;53.640;9.942;2024-02-26T02:25:46;5.90;94.40
15099;DHT22;33900;53.640;9.942;2024-02-26T02:28:12;5.90;94.40
15099;DHT22;33900;53.640;9.942;2024-02-26T02:30:38;5.90;94.40
15099;DHT22;33900;53.640;9.942;2024-02-26T02:33:04;5.90;94.40
15099;DHT22;33900;53.640;9.942;2024-02-26T02:35:32;5.80;94.40
15099;DHT22;33900;53.640;9.942;2024-02-26T02:37:57;5.80;94.40
15099;DHT22;33900;53.640;9.942;2024-02-26T02:40:23;5.80;94.40
15099;DHT22;33900;53.640;9.942;2024-02-26T02:42:49;5.80;94.40
15099;DHT22;33900;53.640;9.942;2024-02-26T02:45:14;5.80;94.40
15099;DHT22;33900;53.640;9.942;2024-02-26T02:47:42;5.70;94.40
15099;DHT22;33900;53.640;9.942;2024-02-26T02:50:07;5.70;94.40
15099;DHT22;33900;53.640;9.942;2024-02-26T02:52:33;5.70;94.40
15099;DHT22;33900;53.640;9.942;2024-02-26T02:54:59;5.70;94.40
15099;DHT22;33900;53.640;9.942;2024-02-26T02:57:24;5.70;94.40
15099;DHT22;33900;53.640;9.942;2024-02-26T02:59:50;5.70;94.40
15099;DHT22;33900;53.640;9.942;2024-02-26T03:02:15;5.60;94.40
15099;DHT22;33900;53.640;9.942;2024-02-26T03:04:41;5.60;94.40
15099;DHT22;33900;53.640;9.942;2024-02-26T03:07:06;5.60;94.50
15099;DHT22;33900;53.640;9.942;2024-02-26T03:09:32;5.60;94.40
15099;DHT22;33900;53.640;9.942;2024-02-26T03:11:58;5.60;94.40
15099;DHT22;33900;53.640;9.942;2024-02-26T03:14:23;5.60;94.40
15099;DHT22;33900;53.640;9.942;2024-02-26T03:16:49;5.60;94.40
15099;DHT22;33900;53.640;9.942;2024-02-26T03:19:15;5.60;94.40
15099;DHT22;33900;53.640;9.942;2024-02-26T03:21:41;5.50;94.40
15099;DHT22;33900;53.640;9.942;2024-02-26T03:24:07;5.50;94.40
15099;DHT22;33900;53.640;9.942;2024-02-26T03:26:36;5.50;94.50
15099;DHT22;33900;53.640;9.942;2024-02-26T03:29:01;5.50;94.40
15099;DHT22;33900;53.640;9.942;2024-02-26T03:31:27;5.50;94.50
15099;DHT22;33900;53.640;9.942;2024-02-26T03:33:53;5.50;94.50
15099;DHT22;33900;53.640;9.942;2024-02-26T03:36:19;5.40;94.40
15099;DHT22;33900;53.640;9.942;2024-02-26T03:42:13;5.40;94.40
15099;DHT22;33900;53.640;9.942;2024-02-26T03:44:39;5.40;94.50
15099;DHT22;33900;53.640;9.942;2024-02-26T03:47:05;5.30;94.50
15099;DHT22;33900;53.640;9.942;2024-02-26T03:49:31;5.30;94.50
15099;DHT22;33900;53.640;9.942;2024-02-26T03:51:56;5.40;94.50
15099;DHT22;33900;53.640;9.942;2024-02-26T03:54:22;5.40;94.50
15099;DHT22;33900;53.640;9.942;2024-02-26T03:56:48;5.30;94.50
15099;DHT22;33900;53.640;9.942;2024-02-26T03:59:13;5.40;94.50
15099;DHT22;33900;53.640;9.942;2024-02-26T04:01:39;5.30;94.50
15099;DHT22;33900;53.640;9.942;2024-02-26T04:04:04;5.40;94.50
15099;DHT22;33900;53.640;9.942;2024-02-26T04:06:30;5.40;94.50
15099;DHT22;33900;53.640;9.942;2024-02-26T04:08:55;5.40;94.50
15099;DHT22;33900;53.640;9.942;2024-02-26T04:11:21;5.30;94.50
15099;DHT22;33900;53.640;9.942;2024-02-26T04:13:47;5.30;94.50
15099;DHT22;33900;53.640;9.942;2024-02-26T04:16:14;5.30;94.50
15099;DHT22;33900;53.640;9.942;2024-02-26T04:18:40;5.30;94.50
15099;DHT22;33900;53.640;9.942;2024-02-26T04:21:06;5.30;94.50
15099;DHT22;33900;53.640;9.942;2024-02-26T04:23:32;5.30;94.50
15099;DHT22;33900;53.640;9.942;2024-02-26T04:25:58;5.30;94.50
15099;DHT22;33900;53.640;9.942;2024-02-26T04:28:24;5.30;94.50
15099;DHT22;33900;53.640;9.942;2024-02-26T04:30:54;5.20;94.50
15099;DHT22;33900;53.640;9.942;2024-02-26T04:33:20;5.20;94.50
15099;DHT22;33900;53.640;9.942;2024-02-26T04:35:45;5.20;94.50
15099;DHT22;33900;53.640;9.942;2024-02-26T04:38:11;5.20;94.50
15099;DHT22;33900;53.640;9.942;2024-02-26T04:40:36;5.20;94.50
15099;DHT22;33900;53.640;9.942;2024-02-26T04:43:02;5.20;94.50
15099;DHT22;33900;53.640;9.942;2024-02-26T04:45:27;5.20;94.50
15099;DHT22;33900;53.640;9.942;2024-02-26T04:47:53;5.20;94.50
15099;DHT22;33900;53.640;9.942;2024-02-26T04:50:19;5.10;94.50
15099;DHT22;33900;53.640;9.942;2024-02-26T04:52:44;5.10;94.50
15099;DHT22;33900;53.640;9.942;2024-02-26T04:55:10;5.10;94.50
15099;DHT22;33900;53.640;9.942;2024-02-26T04:57:36;5.10;94.50
15099;DHT22;33900;53.640;9.942;2024-02-26T05:00:02;5.10;94.50
15099;DHT22;33900;53.640;9.942;2024-02-26T05:02:28;5.10;94.50
15099;DHT22;33900;53.640;9.942;2024-02-26T05:04:55;5.10;94.50
15099;DHT22;33900;53.640;9.942;2024-02-26T05:07:21;5.10;94.50
15099;DHT22;33900;53.640;9.942;2024-02-26T05:09:46;5.10;94.50
15099;DHT22;33900;53.640;9.942;2024-02-26T05:12:12;5.10;94.60
15099;DHT22;33900;53.640;9.942;2024-02-26T05:14:38;5.10;94.60
15099;DHT22;33900;53.640;9.942;2024-02-26T05:17:04;5.10;94.60
15099;DHT22;33900;53.640;9.942;2024-02-26T05:19:31;5.10;94.60
15099;DHT22;33900;53.640;9.942;2024-02-26T05:21:57;5.10;94.60
15099;DHT22;33900;53.640;9.942;2024-02-26T05:24:23;5.10;94.60
15099;DHT22;33900;53.640;9.942;2024-02-26T05:26:48;5.10;94.60
15099;DHT22;33900;53.640;9.942;2024-02-26T05:29:13;5.10;94.60
15099;DHT22;33900;53.640;9.942;2024-02-26T05:31:41;5.10;94.60
15099;DHT22;33900;53.640;9.942;2024-02-26T05:34:07;5.10;94.70
15099;DHT22;33900;53.640;9.942;2024-02-26T05:36:32;5.10;94.60
15099;DHT22;33900;53.640;9.942;2024-02-26T05:39:01;5.10;94.70
15099;DHT22;33900;53.640;9.942;2024-02-26T05:41:27;5.20;94.70
15099;DHT22;33900;53.640;9.942;2024-02-26T05:43:52;5.20;94.70
15099;DHT22;33900;53.640;9.942;2024-02-26T05:46:21;5.20;94.70
15099;DHT22;33900;53.640;9.942;2024-02-26T05:48:47;5.20;94.70
15099;DHT22;33900;53.640;9.942;2024-02-26T05:51:13;5.20;94.70
15099;DHT22;33900;53.640;9.942;2024-02-26T05:53:38;5.20;94.70
15099;DHT22;33900;53.640;9.942;2024-02-26T05:56:04;5.20;94.70
15099;DHT22;33900;53.640;9.942;2024-02-26T05:58:29;5.20;94.70
15099;DHT22;33900;53.640;9.942;2024-02-26T06:00:55;5.20;94.70
15099;DHT22;33900;53.640;9.942;2024-02-26T06:03:20;5.20;94.70
15099;DHT22;33900;53.640;9.942;2024-02-26T06:05:46;5.20;94.70
15099;DHT22;33900;53.640;9.942;2024-02-26T06:08:12;5.20;94.70
15099;DHT22;33900;53.640;9.942;2024-02-26T06:10:37;5.20;94.70
15099;DHT22;33900;53.640;9.942;2024-02-26T06:13:04;5.20;94.80
15099;DHT22;33900;53.640;9.942;2024-02-26T06:15:30;5.20;94.80
15099;DHT22;33900;53.640;9.942;2024-02-26T06:17:55;5.20;94.80
15099;DHT22;33900;53.640;9.942;2024-02-26T06:20:21;5.20;94.80
15099;DHT22;33900;53.640;9.942;2024-02-26T06:22:46;5.30;94.80
15099;DHT22;33900;53.640;9.942;2024-02-26T06:25:12;5.30;94.80
15099;DHT22;33900;53.640;9.942;2024-02-26T06:27:37;5.30;94.80
15099;DHT22;33900;53.640;9.942;2024-02-26T06:30:03;5.30;94.80
15099;DHT22;33900;53.640;9.942;2024-02-26T06:32:29;5.30;94.80
15099;DHT22;33900;53.640;9.942;2024-02-26T06:34:55;5.30;94.80
15099;DHT22;33900;53.640;9.942;2024-02-26T06:37:20;5.30;94.80
15099;DHT22;33900;53.640;9.942;2024-02-26T06:39:46;5.40;94.90
15099;DHT22;33900;53.640;9.942;2024-02-26T06:42:11;5.40;94.90
15099;DHT22;33900;53.640;9.942;2024-02-26T06:44:37;5.40;94.90
15099;DHT22;33900;53.640;9.942;2024-02-26T06:47:03;5.40;94.90
15099;DHT22;33900;53.640;9.942;2024-02-26T06:49:29;5.40;94.90
15099;DHT22;33900;53.640;9.942;2024-02-26T06:51:54;5.40;94.90
15099;DHT22;33900;53.640;9.942;2024-02-26T06:54:20;5.40;94.90
15099;DHT22;33900;53.640;9.942;2024-02-26T06:56:46;5.50;94.90
15099;DHT22;33900;53.640;9.942;2024-02-26T06:59:11;5.40;94.90
15099;DHT22;33900;53.640;9.942;2024-02-26T07:01:37;5.50;94.90
15099;DHT22;33900;53.640;9.942;2024-02-26T07:04:02;5.40;94.90
15099;DHT22;33900;53.640;9.942;2024-02-26T07:06:28;5.50;95.00
15099;DHT22;33900;53.640;9.942;2024-02-26T07:08:53;5.50;95.00
15099;DHT22;33900;53.640;9.942;2024-02-26T07:11:19;5.50;95.00
15099;DHT22;33900;53.640;9.942;2024-02-26T07:13:48;5.50;95.00
15099;DHT22;33900;53.640;9.942;2024-02-26T07:16:15;5.50;95.00
15099;DHT22;33900;53.640;9.942;2024-02-26T07:18:40;5.60;95.00
15099;DHT22;33900;53.640;9.942;2024-02-26T07:21:06;5.60;95.00
15099;DHT22;33900;53.640;9.942;2024-02-26T07:23:31;5.60;95.00
15099;DHT22;33900;53.640;9.942;2024-02-26T07:25:57;5.60;95.00
15099;DHT22;33900;53.640;9.942;2024-02-26T07:28:23;5.60;95.00
15099;DHT22;33900;53.640;9.942;2024-02-26T07:30:49;5.70;95.10
15099;DHT22;33900;53.640;9.942;2024-02-26T07:33:14;5.70;95.10
15099;DHT22;33900;53.640;9.942;2024-02-26T07:35:40;5.70;95.10
15099;DHT22;33900;53.640;9.942;2024-02-26T07:38:05;5.70;95.10
15099;DHT22;33900;53.640;9.942;2024-02-26T07:40:31;5.70;95.10
15099;DHT22;33900;53.640;9.942;2024-02-26T07:42:57;5.70;95.10
15099;DHT22;33900;53.640;9.942;2024-02-26T07:45:22;5.80;95.10
15099;DHT22;33900;53.640;9.942;2024-02-26T07:47:48;5.80;95.10
15099;DHT22;33900;53.640;9.942;2024-02-26T07:50:14;5.80;95.10
15099;DHT22;33900;53.640;9.942;2024-02-26T07:52:40;5.80;95.10
15099;DHT22;33900;53.640;9.942;2024-02-26T07:55:05;5.90;95.10
15099;DHT22;33900;53.640;9.942;2024-02-26T07:57:34;5.90;95.10
15099;DHT22;33900;53.640;9.942;2024-02-26T08:00:00;5.90;95.10
15099;DHT22;33900;53.640;9.942;2024-02-26T08:02:25;5.90;95.10
15099;DHT22;33900;53.640;9.942;2024-02-26T08:04:51;6.00;95.20
15099;DHT22;33900;53.640;9.942;2024-02-26T08:07:17;6.00;95.20
15099;DHT22;33900;53.640;9.942;2024-02-26T08:09:42;6.10;95.20
15099;DHT22;33900;53.640;9.942;2024-02-26T08:12:08;6.10;95.20
15099;DHT22;33900;53.640;9.942;2024-02-26T08:14:33;6.10;95.20
15099;DHT22;33900;53.640;9.942;2024-02-26T08:16:59;6.10;95.20
15099;DHT22;33900;53.640;9.942;2024-02-26T08:19:24;6.20;95.20
15099;DHT22;33900;53.640;9.942;2024-02-26T08:21:50;6.10;95.50
15099;DHT22;33900;53.640;9.942;2024-02-26T08:24:16;6.20;95.20
15099;DHT22;33900;53.640;9.942;2024-02-26T08:26:42;6.30;95.50
15099;DHT22;33900;53.640;9.942;2024-02-26T08:29:07;6.30;95.20
15099;DHT22;33900;53.640;9.942;2024-02-26T08:31:33;6.30;95.20
15099;DHT22;33900;53.640;9.942;2024-02-26T08:33:58;6.30;95.20
15099;DHT22;33900;53.640;9.942;2024-02-26T08:36:25;6.30;95.20
15099;DHT22;33900;53.640;9.942;2024-02-26T08:38:51;6.40;95.30
15099;DHT22;33900;53.640;9.942;2024-02-26T08:41:17;6.40;95.20
15099;DHT22;33900;53.640;9.942;2024-02-26T08:43:42;6.40;95.20
15099;DHT22;33900;53.640;9.942;2024-02-26T08:46:08;6.50;95.20
15099;DHT22;33900;53.640;9.942;2024-02-26T08:48:33;6.50;95.30
15099;DHT22;33900;53.640;9.942;2024-02-26T08:50:59;6.60;95.30
15099;DHT22;33900;53.640;9.942;2024-02-26T08:53:25;6.60;95.30
15099;DHT22;33900;53.640;9.942;2024-02-26T08:55:52;6.60;95.30
15099;DHT22;33900;53.640;9.942;2024-02-26T08:58:17;6.60;95.30
15099;DHT22;33900;53.640;9.942;2024-02-26T09:00:43;6.60;95.30
15099;DHT22;33900;53.640;9.942;2024-02-26T09:03:08;6.70;95.30
15099;DHT22;33900;53.640;9.942;2024-02-26T09:05:34;6.70;95.30
15099;DHT22;33900;53.640;9.942;2024-02-26T09:08:00;6.70;95.30
15099;DHT22;33900;53.640;9.942;2024-02-26T09:10:25;6.80;95.30
15099;DHT22;33900;53.640;9.942;2024-02-26T09:12:51;6.70;95.20
15099;DHT22;33900;53.640;9.942;2024-02-26T09:15:17;6.80;95.30
15099;DHT22;33900;53.640;9.942;2024-02-26T09:17:42;6.80;95.30
15099;DHT22;33900;53.640;9.942;2024-02-26T09:20:09;6.80;95.30
15099;DHT22;33900;53.640;9.942;2024-02-26T09:22:35;6.90;95.30
15099;DHT22;33900;53.640;9.942;2024-02-26T09:25:03;6.90;95.30
15099;DHT22;33900;53.640;9.942;2024-02-26T09:27:29;6.90;95.30
15099;DHT22;33900;53.640;9.942;2024-02-26T09:29:56;7.00;95.40
15099;DHT22;33900;53.640;9.942;2024-02-26T09:32:21;7.00;95.40
15099;DHT22;33900;53.640;9.942;2024-02-26T09:34:47;7.00;95.40
15099;DHT22;33900;53.640;9.942;2024-02-26T09:37:12;7.00;95.40
15099;DHT22;33900;53.640;9.942;2024-02-26T09:39:38;7.10;95.40
15099;DHT22;33900;53.640;9.942;2024-02-26T09:42:04;7.10;95.40
15099;DHT22;33900;53.640;9.942;2024-02-26T09:44:30;7.10;95.40
15099;DHT22;33900;53.640;9.942;2024-02-26T09:46:56;7.20;95.50
15099;DHT22;33900;53.640;9.942;2024-02-26T09:49:22;7.20;95.50
15099;DHT22;33900;53.640;9.942;2024-02-26T09:51:49;7.20;95.40
15099;DHT22;33900;53.640;9.942;2024-02-26T09:54:16;7.30;95.50
15099;DHT22;33900;53.640;9.942;2024-02-26T09:56:42;7.30;95.40
15099;DHT22;33900;53.640;9.942;2024-02-26T09:59:10;7.40;95.50
15099;DHT22;33900;53.640;9.942;2024-02-26T10:01:37;7.40;95.50
15099;DHT22;33900;53.640;9.942;2024-02-26T10:04:04;7.40;95.50
15099;DHT22;33900;53.640;9.942;2024-02-26T10:06:29;7.40;95.50
15099;DHT22;33900;53.640;9.942;2024-02-26T10:08:58;7.50;95.50
15099;DHT22;33900;53.640;9.942;2024-02-26T10:11:24;7.50;95.50
15099;DHT22;33900;53.640;9.942;2024-02-26T10:13:50;7.50;95.50
15099;DHT22;33900;53.640;9.942;2024-02-26T10:16:16;7.60;95.50
15099;DHT22;33900;53.640;9.942;2024-02-26T10:18:45;7.60;95.50
15099;DHT22;33900;53.640;9.942;2024-02-26T10:21:10;7.60;95.50
15099;DHT22;33900;53.640;9.942;2024-02-26T10:23:36;7.60;95.50
15099;DHT22;33900;53.640;9.942;2024-02-26T10:26:02;7.60;95.50
15099;DHT22;33900;53.640;9.942;2024-02-26T10:28:29;7.70;95.50
15099;DHT22;33900;53.640;9.942;2024-02-26T10:30:54;7.70;95.50
15099;DHT22;33900;53.640;9.942;2024-02-26T10:33:20;7.70;95.50
15099;DHT22;33900;53.640;9.942;2024-02-26T10:35:46;7.70;95.50
15099;DHT22;33900;53.640;9.942;2024-02-26T10:38:12;7.80;95.50
15099;DHT22;33900;53.640;9.942;2024-02-26T10:40:38;7.80;95.50
15099;DHT22;33900;53.640;9.942;2024-02-26T10:43:03;7.80;95.50
15099;DHT22;33900;53.640;9.942;2024-02-26T10:45:29;7.80;95.50
15099;DHT22;33900;53.640;9.942;2024-02-26T10:47:55;7.90;95.50
15099;DHT22;33900;53.640;9.942;2024-02-26T10:50:21;8.00;95.60
15099;DHT22;33900;53.640;9.942;2024-02-26T10:52:46;8.00;95.60
15099;DHT22;33900;53.640;9.942;2024-02-26T10:55:15;8.00;95.60
15099;DHT22;33900;53.640;9.942;2024-02-26T10:57:43;8.10;95.60
15099;DHT22;33900;53.640;9.942;2024-02-26T11:00:10;8.10;95.60
15099;DHT22;33900;53.640;9.942;2024-02-26T11:02:38;8.20;95.60
15099;DHT22;33900;53.640;9.942;2024-02-26T11:05:03;8.30;95.70
15099;DHT22;33900;53.640;9.942;2024-02-26T11:07:29;8.30;95.70
15099;DHT22;33900;53.640;9.942;2024-02-26T11:09:55;8.40;95.70
15099;DHT22;33900;53.640;9.942;2024-02-26T11:12:21;8.50;95.80
15099;DHT22;33900;53.640;9.942;2024-02-26T11:14:48;8.60;95.70
15099;DHT22;33900;53.640;9.942;2024-02-26T11:17:14;8.80;95.80
15099;DHT22;33900;53.640;9.942;2024-02-26T11:19:42;8.90;95.80
15099;DHT22;33900;53.640;9.942;2024-02-26T11:22:08;9.00;95.80
15099;DHT22;33900;53.640;9.942;2024-02-26T11:24:33;9.10;95.80
15099;DHT22;33900;53.640;9.942;2024-02-26T11:27:00;9.20;95.80
15099;DHT22;33900;53.640;9.942;2024-02-26T11:29:32;9.30;95.60
15099;DHT22;33900;53.640;9.942;2024-02-26T11:31:59;9.40;95.50
15099;DHT22;33900;53.640;9.942;2024-02-26T11:34:25;9.40;95.30
15099;DHT22;33900;53.640;9.942;2024-02-26T11:36:51;9.50;95.30
15099;DHT22;33900;53.640;9.942;2024-02-26T11:39:16;9.60;95.40
15099;DHT22;33900;53.640;9.942;2024-02-26T11:41:42;9.70;95.40
15099;DHT22;33900;53.640;9.942;2024-02-26T11:44:08;9.80;95.30
15099;DHT22;33900;53.640;9.942;2024-02-26T11:46:40;10.00;95.30
15099;DHT22;33900;53.640;9.942;2024-02-26T11:51:51;10.10;95.10
15099;DHT22;33900;53.640;9.942;2024-02-26T11:57:01;10.20;94.90
15099;DHT22;33900;53.640;9.942;2024-02-26T11:59:40;10.20;94.80
15099;DHT22;33900;53.640;9.942;2024-02-26T12:02:06;10.20;94.70
15099;DHT22;33900;53.640;9.942;2024-02-26T12:04:32;10.10;94.40
15099;DHT22;33900;53.640;9.942;2024-02-26T12:07:00;10.10;94.30
15099;DHT22;33900;53.640;9.942;2024-02-26T12:09:36;10.00;94.40
15099;DHT22;33900;53.640;9.942;2024-02-26T12:12:03;10.00;94.20
15099;DHT22;33900;53.640;9.942;2024-02-26T12:14:29;9.90;94.30
15099;DHT22;33900;53.640;9.942;2024-02-26T12:16:55;9.80;94.10
15099;DHT22;33900;53.640;9.942;2024-02-26T12:19:21;9.80;94.10
15099;DHT22;33900;53.640;9.942;2024-02-26T12:21:51;9.70;94.20
15099;DHT22;33900;53.640;9.942;2024-02-26T12:24:16;9.80;94.30
15099;DHT22;33900;53.640;9.942;2024-02-26T12:26:43;9.70;94.20
15099;DHT22;33900;53.640;9.942;2024-02-26T12:29:09;9.70;94.30
15099;DHT22;33900;53.640;9.942;2024-02-26T12:31:35;9.70;94.30
15099;DHT22;33900;53.640;9.942;2024-02-26T12:34:04;9.70;94.30
15099;DHT22;33900;53.640;9.942;2024-02-26T12:36:29;9.70;94.60
15099;DHT22;33900;53.640;9.942;2024-02-26T12:38:55;9.70;94.30
15099;DHT22;33900;53.640;9.942;2024-02-26T12:41:21;9.70;94.40
15099;DHT22;33900;53.640;9.942;2024-02-26T12:43:47;9.70;94.40
15099;DHT22;33900;53.640;9.942;2024-02-26T12:46:12;9.70;94.40
15099;DHT22;33900;53.640;9.942;2024-02-26T12:48:42;9.70;94.30
15099;DHT22;33900;53.640;9.942;2024-02-26T12:51:07;9.70;94.30
15099;DHT22;33900;53.640;9.942;2024-02-26T12:53:35;9.60;94.20
15099;DHT22;33900;53.640;9.942;2024-02-26T12:56:01;9.60;94.10
15099;DHT22;33900;53.640;9.942;2024-02-26T12:58:28;9.50;94.10
15099;DHT22;33900;53.640;9.942;2024-02-26T13:00:54;9.50;94.20
15099;DHT22;33900;53.640;9.942;2024-02-26T13:03:20;9.50;94.10
15099;DHT22;33900;53.640;9.942;2024-02-26T13:05:46;9.50;94.10
15099;DHT22;33900;53.640;9.942;2024-02-26T13:08:18;9.50;94.10
15099;DHT22;33900;53.640;9.942;2024-02-26T13:10:45;9.40;94.10
15099;DHT22;33900;53.640;9.942;2024-02-26T13:13:11;9.30;94.00
15099;DHT22;33900;53.640;9.942;2024-02-26T13:15:36;9.30;94.10
15099;DHT22;33900;53.640;9.942;2024-02-26T13:18:11;9.30;94.10
15099;DHT22;33900;53.640;9.942;2024-02-26T13:20:37;9.40;94.20
15099;DHT22;33900;53.640;9.942;2024-02-26T13:23:10;9.40;94.30
15099;DHT22;33900;53.640;9.942;2024-02-26T13:25:36;9.50;94.30
15099;DHT22;33900;53.640;9.942;2024-02-26T13:30:33;9.50;94.30
15099;DHT22;33900;53.640;9.942;2024-02-26T13:33:06;9.50;94.30
15099;DHT22;33900;53.640;9.942;2024-02-26T13:35:32;9.50;94.30
15099;DHT22;33900;53.640;9.942;2024-02-26T13:38:00;9.50;94.20
15099;DHT22;33900;53.640;9.942;2024-02-26T13:40:26;9.50;94.20
15099;DHT22;33900;53.640;9.942;2024-02-26T13:42:51;9.60;94.20
15099;DHT22;33900;53.640;9.942;2024-02-26T13:45:18;9.50;94.10
15099;DHT22;33900;53.640;9.942;2024-02-26T13:47:43;9.50;94.10
15099;DHT22;33900;53.640;9.942;2024-02-26T13:50:09;9.50;94.10
15099;DHT22;33900;53.640;9.942;2024-02-26T13:52:35;9.50;94.10
15099;DHT22;33900;53.640;9.942;2024-02-26T13:55:00;9.50;94.20
15099;DHT22;33900;53.640;9.942;2024-02-26T13:57:27;9.60;94.20
15099;DHT22;33900;53.640;9.942;2024-02-26T13:59:54;9.60;94.20
15099;DHT22;33900;53.640;9.942;2024-02-26T14:02:19;9.60;94.20
15099;DHT22;33900;53.640;9.942;2024-02-26T14:04:45;9.60;94.20
15099;DHT22;33900;53.640;9.942;2024-02-26T14:07:11;9.60;94.00
15099;DHT22;33900;53.640;9.942;2024-02-26T14:09:37;9.60;94.10
15099;DHT22;33900;53.640;9.942;2024-02-26T14:12:02;9.60;94.10
15099;DHT22;33900;53.640;9.942;2024-02-26T14:14:28;9.60;94.20
15099;DHT22;33900;53.640;9.942;2024-02-26T14:16:54;9.70;94.20
15099;DHT22;33900;53.640;9.942;2024-02-26T14:19:20;9.70;94.20
15099;DHT22;33900;53.640;9.942;2024-02-26T14:21:46;9.70;94.20
15099;DHT22;33900;53.640;9.942;2024-02-26T14:24:11;9.70;94.10
15099;DHT22;33900;53.640;9.942;2024-02-26T14:26:37;9.80;94.20
15099;DHT22;33900;53.640;9.942;2024-02-26T14:29:02;9.70;94.10
15099;DHT22;33900;53.640;9.942;2024-02-26T14:31:28;9.70;94.10
15099;DHT22;33900;53.640;9.942;2024-02-26T14:33:53;9.70;94.10
15099;DHT22;33900;53.640;9.942;2024-02-26T14:36:19;9.70;94.00
15099;DHT22;33900;53.640;9.942;2024-02-26T14:38:46;9.70;93.90
15099;DHT22;33900;53.640;9.942;2024-02-26T14:41:12;9.70;94.00
15099;DHT22;33900;53.640;9.942;2024-02-26T14:43:37;9.70;94.00
15099;DHT22;33900;53.640;9.942;2024-02-26T14:46:03;9.70;94.00
15099;DHT22;33900;53.640;9.942;2024-02-26T14:48:29;9.70;94.00
15099;DHT22;33900;53.640;9.942;2024-02-26T14:50:55;9.60;94.20
15099;DHT22;33900;53.640;9.942;2024-02-26T14:53:20;9.60;93.80
15099;DHT22;33900;53.640;9.942;2024-02-26T14:55:46;9.60;94.20
15099;DHT22;33900;53.640;9.942;2024-02-26T14:58:11;9.60;93.80
15099;DHT22;33900;53.640;9.942;2024-02-26T15:00:40;9.50;93.80
15099;DHT22;33900;53.640;9.942;2024-02-26T15:03:06;9.50;93.80
15099;DHT22;33900;53.640;9.942;2024-02-26T15:05:32;9.50;93.80
15099;DHT22;33900;53.640;9.942;2024-02-26T15:07:57;9.50;93.80
15099;DHT22;33900;53.640;9.942;2024-02-26T15:10:24;9.50;93.90
15099;DHT22;33900;53.640;9.942;2024-02-26T15:12:50;9.40;93.90
15099;DHT22;33900;53.640;9.942;2024-02-26T15:15:22;9.40;93.90
15099;DHT22;33900;53.640;9.942;2024-02-26T15:17:48;9.40;93.80
15099;DHT22;33900;53.640;9.942;2024-02-26T15:20:16;9.40;93.80
15099;DHT22;33900;53.640;9.942;2024-02-26T15:22:42;9.30;93.50
15099;DHT22;33900;53.640;9.942;2024-02-26T15:25:08;9.30;93.50
15099;DHT22;33900;53.640;9.942;2024-02-26T15:27:34;9.20;93.50
15099;DHT22;33900;53.640;9.942;2024-02-26T15:29:59;9.20;93.60
15099;DHT22;33900;53.640;9.942;2024-02-26T15:32:25;9.20;93.70
15099;DHT22;33900;53.640;9.942;2024-02-26T15:34:52;9.20;93.80
15099;DHT22;33900;53.640;9.942;2024-02-26T15:37:18;9.20;93.80
15099;DHT22;33900;53.640;9.942;2024-02-26T15:39:44;9.20;93.80
15099;DHT22;33900;53.640;9.942;2024-02-26T15:42:10;9.20;93.80
15099;DHT22;33900;53.640;9.942;2024-02-26T15:44:39;9.20;93.80
15099;DHT22;33900;53.640;9.942;2024-02-26T15:47:05;9.20;93.90
15099;DHT22;33900;53.640;9.942;2024-02-26T15:49:31;9.20;93.90